Time;durP1;ratioP1;P1;durP2;ratioP2;P2;SDS_P1;SDS_P2;PMS_P1;PMS_P2;Temp;Humidity;BMP_temperature;BMP_pressure;BME280_temperature;BME280_humidity;BME280_pressure;Samples;Min_cycle;Max_cycle;Signal;HPM_P1;HPM_P2
2022/03/22 00:02:07;;;;;;;20.40;10.10;;;;;1.40;99293.80;;;;111070;1247;42489;-66
2022/03/22 00:04:38;;;;;;;24.50;11.30;;;;;1.30;99298.40;;;;111091;1247;42554;-67
2022/03/22 00:07:08;;;;;;;;;;;;;1.30;99291.80;;;;111073;1245;42000;-68
2022/03/22 00:09:38;;;;;;;26.20;11.90;;;;;1.20;99293.60;;;;111154;1247;41256;-66
2022/03/22 00:12:09;;;;;;;23.90;11.70;;;;;1.20;99300.20;;;;111130;1247;41597;-67
2022/03/22 00:14:39;;;;;;;27.60;11.20;;;;;1.10;99298.80;;;;111122;1248;41174;-66
2022/03/22 00:17:29;;;;;;;;;;;;;1.10;99298.00;;;;110942;1248;41279;-68
2022/03/22 00:20:00;;;;;;;26.30;11.60;;;;;1.10;99305.20;;;;111112;1248;41246;-67
2022/03/22 00:22:30;;;;;;;24.10;12.50;;;;;1.02;99296.20;;;;111131;1246;41140;-67
2022/03/22 00:25:00;;;;;;;30.00;12.90;;;;;1.00;99299.60;;;;111067;1247;41151;-65
2022/03/22 00:27:51;;;;;;;35.50;15.40;;;;;1.00;99302.20;;;;111111;1247;41268;-66
2022/03/22 00:30:30;;;;;;;32.70;14.60;;;;;1.10;99304.20;;;;110858;1247;41609;-66
2022/03/22 00:33:03;;;;;;;25.40;13.00;;;;;1.10;99295.40;;;;111112;1247;41258;-66
2022/03/22 00:35:37;;;;;;;28.70;13.30;;;;;1.20;99301.20;;;;111133;1248;41180;-67
2022/03/22 00:38:11;;;;;;;29.20;12.70;;;;;1.20;99305.00;;;;111151;1246;41249;-66
2022/03/22 00:40:41;;;;;;;27.60;13.60;;;;;1.20;99299.40;;;;111015;1248;41255;-67
2022/03/22 00:43:12;;;;;;;26.10;12.60;;;;;1.24;99295.60;;;;110825;1248;41943;-66
2022/03/22 00:45:42;;;;;;;24.80;11.90;;;;;1.30;99296.20;;;;111088;1248;41180;-67
2022/03/22 00:48:12;;;;;;;31.20;12.20;;;;;1.30;99291.20;;;;111076;1247;41145;-68
2022/03/22 00:50:46;;;;;;;23.80;11.40;;;;;1.30;99289.20;;;;111045;1247;42265;-68
2022/03/22 00:53:18;;;;;;;23.30;10.30;;;;;1.32;99292.60;;;;111066;1247;41125;-66
2022/03/22 00:55:49;;;;;;;21.70;10.00;;;;;1.32;99292.00;;;;111036;1247;41765;-66
2022/03/22 00:58:19;;;;;;;20.90;10.20;;;;;1.30;99298.40;;;;111065;1249;41319;-67
2022/03/22 01:00:49;;;;;;;21.10;10.80;;;;;1.30;99288.20;;;;111090;1248;41132;-66
2022/03/22 01:03:19;;;;;;;21.80;10.60;;;;;1.26;99286.40;;;;111009;1247;41948;-67
2022/03/22 01:05:50;;;;;;;22.70;10.20;;;;;1.20;99288.60;;;;111113;1247;41140;-67
2022/03/22 01:08:20;;;;;;;22.60;9.70;;;;;1.20;99292.20;;;;111058;1249;41160;-67
2022/03/22 01:10:53;;;;;;;23.40;10.50;;;;;1.20;99294.40;;;;111064;1247;41143;-67
2022/03/22 01:13:27;;;;;;;24.40;10.60;;;;;1.10;99287.60;;;;111098;1248;41803;-68
2022/03/22 01:15:57;;;;;;;21.90;10.00;;;;;1.10;99288.40;;;;110922;1247;41599;-67
2022/03/22 01:18:27;;;;;;;;;;;;;1.10;99285.40;;;;111045;1247;41154;-67
2022/03/22 01:20:57;;;;;;;17.60;8.80;;;;;1.10;99282.40;;;;111111;1247;41247;-66
2022/03/22 01:23:28;;;;;;;23.20;11.00;;;;;1.10;99287.20;;;;110991;1249;42087;-67
2022/03/22 01:25:59;;;;;;;28.80;13.30;;;;;1.10;99286.20;;;;110891;1248;42248;-67
2022/03/22 01:28:30;;;;;;;29.30;13.00;;;;;0.94;99283.80;;;;111039;1247;41165;-67
2022/03/22 01:31:00;;;;;;;30.70;14.70;;;;;0.80;99288.20;;;;111095;1247;41257;-66
2022/03/22 01:33:30;;;;;;;24.40;11.90;;;;;0.70;99289.80;;;;111088;1247;41576;-67
2022/03/22 01:36:00;;;;;;;26.40;11.40;;;;;0.60;99297.60;;;;110859;1248;42677;-67
2022/03/22 01:38:31;;;;;;;23.60;11.30;;;;;0.50;99297.00;;;;110880;1247;41301;-67
2022/03/22 01:41:03;;;;;;;20.50;10.00;;;;;0.40;99300.60;;;;111163;1247;41727;-66
2022/03/22 01:43:33;;;;;;;20.20;9.90;;;;;0.40;99299.00;;;;111138;1247;41146;-66
2022/03/22 01:46:03;;;;;;;19.40;9.50;;;;;0.30;99293.20;;;;110921;1248;41318;-67
2022/03/22 01:48:33;;;;;;;22.40;9.70;;;;;0.30;99294.40;;;;111153;1247;41246;-67
2022/03/22 01:51:03;;;;;;;19.40;9.50;;;;;0.22;99292.80;;;;111141;1247;41287;-67
2022/03/22 01:53:36;;;;;;;25.10;11.00;;;;;0.20;99295.20;;;;111031;1247;42392;-67
2022/03/22 01:56:06;;;;;;;24.40;11.10;;;;;0.20;99293.00;;;;111118;1247;41237;-67
2022/03/22 01:58:36;;;;;;;24.30;11.90;;;;;0.20;99291.40;;;;111086;1247;41255;-66
2022/03/22 02:06:52;;;;;;;32.30;15.50;;;;;0.00;99287.20;;;;111102;1247;41131;-67
2022/03/22 02:09:23;;;;;;;24.50;12.60;;;;;-0.10;99298.20;;;;111130;1247;41347;-68
2022/03/22 02:11:53;;;;;;;27.50;12.30;;;;;-0.10;99287.80;;;;111066;1247;41290;-66
2022/03/22 02:14:25;;;;;;;21.30;11.20;;;;;-0.16;99289.20;;;;110833;1247;41794;-65
2022/03/22 02:16:55;;;;;;;29.00;12.20;;;;;-0.20;99295.60;;;;110999;1247;41948;-66
2022/03/22 02:19:27;;;;;;;22.00;11.40;;;;;-0.20;99284.60;;;;110858;1247;41177;-66
2022/03/22 02:22:01;;;;;;;26.60;12.70;;;;;-0.30;99291.80;;;;110872;1247;41128;-67
2022/03/22 02:24:31;;;;;;;23.00;11.00;;;;;-0.30;99292.20;;;;111081;1247;41141;-66
2022/03/22 02:27:02;;;;;;;25.00;11.60;;;;;-0.30;99289.60;;;;111053;1247;41269;-66
2022/03/22 02:29:32;;;;;;;26.30;10.90;;;;;-0.40;99290.00;;;;111065;1247;41700;-65
2022/03/22 02:32:07;;;;;;;22.30;10.70;;;;;-0.40;99291.40;;;;111049;1249;41775;-66
2022/03/22 02:34:37;;;;;;;22.50;11.80;;;;;-0.40;99291.40;;;;111062;1247;41522;-67
2022/03/22 02:37:08;;;;;;;21.20;10.40;;;;;-0.40;99297.40;;;;111139;1247;42065;-66
2022/03/22 02:39:38;;;;;;;21.50;10.40;;;;;-0.40;99295.60;;;;111105;1247;41260;-66
2022/03/22 02:42:09;;;;;;;24.80;10.60;;;;;-0.40;99298.40;;;;111040;1247;41771;-67
2022/03/22 02:44:40;;;;;;;23.00;10.90;;;;;-0.40;99290.80;;;;111114;1247;41826;-67
2022/03/22 02:47:10;;;;;;;22.50;10.30;;;;;-0.42;99293.60;;;;110881;1247;41141;-66
2022/03/22 02:49:41;;;;;;;20.40;10.60;;;;;-0.40;99300.80;;;;111136;1247;41142;-66
2022/03/22 02:52:11;;;;;;;23.20;11.10;;;;;-0.48;99299.40;;;;111166;1247;41166;-67
2022/03/22 02:54:41;;;;;;;21.50;11.10;;;;;-0.46;99306.60;;;;111094;1247;41226;-66
2022/03/22 02:57:11;;;;;;;25.80;11.20;;;;;-0.50;99304.60;;;;111057;1247;41732;-66
2022/03/22 02:59:41;;;;;;;25.30;13.10;;;;;-0.50;99298.80;;;;110823;1250;41148;-67
2022/03/22 03:02:11;;;;;;;26.20;13.10;;;;;-0.52;99304.00;;;;111122;1247;41141;-66
2022/03/22 03:04:41;;;;;;;27.80;13.00;;;;;-0.70;99304.20;;;;111063;1247;41176;-66
2022/03/22 03:07:11;;;;;;;28.20;12.90;;;;;-0.70;99303.00;;;;110937;1248;41160;-67
2022/03/22 03:09:42;;;;;;;26.40;12.00;;;;;-0.80;99299.60;;;;110863;1249;41598;-66
2022/03/22 03:12:12;;;;;;;22.60;11.90;;;;;-0.80;99304.40;;;;111140;1247;41183;-66
2022/03/22 03:14:43;;;;;;;;;;;;;-0.80;99302.80;;;;111009;1247;41422;-65
2022/03/22 03:17:15;;;;;;;20.00;9.90;;;;;-0.90;99296.00;;;;110838;1247;41255;-67
2022/03/22 03:19:46;;;;;;;22.20;10.80;;;;;-0.90;99305.80;;;;110856;1250;41148;-66
2022/03/22 03:22:15;;;;;;;22.30;11.30;;;;;-0.90;99302.00;;;;111079;1247;41143;-67
2022/03/22 03:24:46;;;;;;;20.40;10.70;;;;;-0.92;99303.20;;;;110908;1249;41140;-68
2022/03/22 03:27:15;;;;;;;21.90;10.90;;;;;-0.96;99302.60;;;;111047;1247;41584;-68
2022/03/22 03:29:46;;;;;;;;;;;;;-1.00;99293.60;;;;111041;1248;42501;-67
2022/03/22 03:32:16;;;;;;;20.20;9.80;;;;;-1.00;99295.60;;;;111264;1246;42239;-67
2022/03/22 03:34:47;;;;;;;22.80;11.30;;;;;-1.00;99299.20;;;;111114;1247;41243;-67
2022/03/22 03:37:17;;;;;;;23.20;11.80;;;;;-1.10;99295.20;;;;111045;1247;41213;-66
2022/03/22 03:39:46;;;;;;;32.40;13.80;;;;;-1.08;99297.60;;;;111169;1246;41142;-66
2022/03/22 03:42:17;;;;;;;27.70;14.10;;;;;-1.04;99301.40;;;;111099;1247;41611;-66
2022/03/22 03:47:35;;;;;;;21.70;10.60;;;;;-1.12;99302.20;;;;111103;1246;41139;-66
2022/03/22 03:50:07;;;;;;;23.20;11.30;;;;;-1.20;99301.20;;;;110886;1247;41167;-66
2022/03/22 03:52:38;;;;;;;20.20;10.10;;;;;-1.20;99302.80;;;;111092;1246;41127;-67
2022/03/22 03:55:07;;;;;;;23.00;10.50;;;;;-1.20;99301.80;;;;111048;1246;41130;-66
2022/03/22 03:57:37;;;;;;;21.60;10.70;;;;;-1.20;99302.80;;;;110912;1247;41253;-67
2022/03/22 04:00:08;;;;;;;21.60;9.80;;;;;-1.30;99301.20;;;;111186;1247;41634;-66
2022/03/22 04:02:43;;;;;;;24.50;11.60;;;;;-1.30;99303.00;;;;111119;1247;41161;-67
2022/03/22 04:05:13;;;;;;;22.40;11.50;;;;;-1.30;99311.40;;;;111119;1247;41191;-66
2022/03/22 04:07:43;;;;;;;23.00;10.90;;;;;-1.36;99303.20;;;;111168;1247;41259;-66
2022/03/22 04:10:14;;;;;;;21.00;10.40;;;;;-1.40;99305.40;;;;110923;1248;41217;-67
2022/03/22 04:12:44;;;;;;;28.90;11.80;;;;;-1.40;99310.20;;;;110957;1249;41146;-67
2022/03/22 04:15:15;;;;;;;25.20;12.00;;;;;-1.42;99302.80;;;;111106;1247;41269;-66
2022/03/22 04:17:44;;;;;;;25.70;13.20;;;;;-1.50;99310.20;;;;111100;1247;41161;-66
2022/03/22 04:20:14;;;;;;;29.10;13.20;;;;;-1.50;99313.40;;;;111009;1248;42115;-67
2022/03/22 04:22:44;;;;;;;27.50;14.00;;;;;-1.50;99307.80;;;;110798;1247;41135;-66
2022/03/22 04:25:14;;;;;;;29.80;14.80;;;;;-1.50;99313.80;;;;111144;1246;41182;-65
2022/03/22 04:33:20;;;;;;;26.70;12.80;;;;;-1.56;99319.40;;;;110877;1247;41507;-66
2022/03/22 04:35:50;;;;;;;27.90;13.20;;;;;-1.60;99324.20;;;;110797;1248;41441;-65
2022/03/22 04:38:20;;;;;;;24.20;11.40;;;;;-1.60;99323.00;;;;111116;1246;42405;-66
2022/03/22 04:40:50;;;;;;;25.70;11.50;;;;;-1.60;99328.00;;;;111197;1247;41130;-65
2022/03/22 04:43:20;;;;;;;23.60;10.20;;;;;-1.56;99325.00;;;;111028;1247;41192;-66
2022/03/22 04:45:50;;;;;;;22.30;11.40;;;;;-1.50;99322.20;;;;111078;1247;41719;-66
2022/03/22 04:48:20;;;;;;;21.90;10.80;;;;;-1.50;99322.40;;;;111174;1247;41137;-66
2022/03/22 04:56:43;;;;;;;26.20;11.00;;;;;-1.40;99321.80;;;;111083;1247;41123;-66
2022/03/22 04:56:43;;;;;;;22.60;11.10;;;;;-1.20;99317.00;;;;111096;1247;41238;-65
2022/03/22 04:59:15;;;;;;;24.00;11.30;;;;;-1.18;99320.00;;;;111189;1246;41797;-68
2022/03/22 05:01:44;;;;;;;22.20;10.40;;;;;-1.10;99316.00;;;;111040;1247;41169;-66
2022/03/22 05:04:14;;;;;;;32.30;14.20;;;;;-0.98;99321.60;;;;111050;1250;41180;-65
2022/03/22 05:06:43;;;;;;;28.90;13.80;;;;;-0.88;99319.20;;;;111040;1248;41277;-66
2022/03/22 05:09:12;;;;;;;28.90;13.20;;;;;-0.80;99319.80;;;;111095;1247;41685;-66
2022/03/22 05:11:42;;;;;;;25.80;12.00;;;;;-0.70;99318.20;;;;111209;1247;41648;-66
2022/03/22 05:14:11;;;;;;;32.00;12.40;;;;;-0.60;99318.60;;;;111053;1246;41266;-65
2022/03/22 05:16:41;;;;;;;30.80;11.30;;;;;-0.50;99320.40;;;;111116;1247;41178;-66
2022/03/22 05:19:11;;;;;;;32.50;12.90;;;;;-0.40;99319.80;;;;110917;1247;41377;-66
2022/03/22 05:21:41;;;;;;;29.90;14.10;;;;;-0.30;99314.60;;;;111068;1247;41244;-67
2022/03/22 05:24:10;;;;;;;28.70;13.20;;;;;-0.26;99319.80;;;;111066;1247;41317;-66
2022/03/22 05:26:39;;;;;;;27.00;13.70;;;;;-0.10;99319.60;;;;111043;1248;41631;-66
2022/03/22 05:29:09;;;;;;;28.90;12.00;;;;;0.00;99319.00;;;;110671;1250;41884;-66
2022/03/22 05:31:39;;;;;;;29.00;14.20;;;;;0.20;99318.80;;;;110721;1249;41142;-65
2022/03/22 05:34:08;;;;;;;34.80;16.40;;;;;0.40;99320.20;;;;111031;1248;41500;-65
2022/03/22 05:36:38;;;;;;;32.70;16.40;;;;;0.50;99318.40;;;;111140;1247;42012;-65
2022/03/22 05:39:09;;;;;;;28.50;13.40;;;;;0.64;99313.80;;;;110956;1246;41268;-66
2022/03/22 05:41:38;;;;;;;36.10;16.80;;;;;0.80;99314.80;;;;111110;1247;41252;-64
2022/03/22 05:44:10;;;;;;;27.60;13.70;;;;;1.00;99312.00;;;;111178;1247;41138;-66
2022/03/22 05:46:41;;;;;;;32.60;14.90;;;;;1.16;99309.60;;;;111125;1247;41188;-67
2022/03/22 05:49:11;;;;;;;36.90;15.00;;;;;1.30;99310.20;;;;111063;1248;41112;-66
2022/03/22 05:51:40;;;;;;;40.50;17.60;;;;;1.48;99306.60;;;;111103;1247;41595;-67
2022/03/22 05:54:10;;;;;;;35.80;16.10;;;;;1.50;99303.00;;;;110973;1248;41852;-67
2022/03/22 05:56:39;;;;;;;35.00;16.50;;;;;1.62;99297.20;;;;111123;1247;41240;-66
2022/03/22 05:59:09;;;;;;;33.00;14.40;;;;;1.82;99303.20;;;;111072;1247;41359;-65
2022/03/22 06:01:39;;;;;;;35.00;14.20;;;;;2.04;99301.40;;;;111105;1246;41627;-65
2022/03/22 06:04:09;;;;;;;38.20;18.20;;;;;2.26;99292.00;;;;111036;1247;41723;-64
2022/03/22 06:06:39;;;;;;;54.90;21.70;;;;;2.44;99290.00;;;;111120;1247;41132;-66
2022/03/22 06:09:10;;;;;;;51.80;20.30;;;;;2.60;99289.80;;;;111033;1247;41135;-66
2022/03/22 06:11:41;;;;;;;;;;;;;2.80;99295.40;;;;111210;1247;41597;-66
2022/03/22 06:14:11;;;;;;;;;;;;;2.90;99291.40;;;;111126;1247;41260;-67
2022/03/22 06:16:40;;;;;;;34.50;16.30;;;;;3.00;99284.40;;;;111149;1246;41139;-66
2022/03/22 06:19:10;;;;;;;35.70;16.10;;;;;3.10;99289.00;;;;111169;1246;41272;-67
2022/03/22 06:21:39;;;;;;;37.60;15.60;;;;;3.30;99287.20;;;;111188;1247;40730;-67
2022/03/22 06:24:09;;;;;;;33.50;16.90;;;;;3.50;99285.00;;;;110840;1248;41275;-67
2022/03/22 06:26:38;;;;;;;35.10;14.90;;;;;3.60;99285.20;;;;110901;1248;41126;-66
2022/03/22 06:29:07;;;;;;;31.70;13.90;;;;;3.70;99287.60;;;;111043;1248;41255;-65
2022/03/22 06:31:37;;;;;;;33.70;16.40;;;;;3.90;99283.20;;;;111010;1247;41189;-66
2022/03/22 06:34:06;;;;;;;34.20;15.70;;;;;4.00;99285.60;;;;111187;1246;41374;-67
2022/03/22 06:36:35;;;;;;;31.40;15.90;;;;;4.06;99285.40;;;;111178;1247;41611;-66
2022/03/22 06:39:05;;;;;;;33.30;16.60;;;;;4.20;99282.60;;;;111067;1247;41139;-67
2022/03/22 06:41:34;;;;;;;31.10;15.20;;;;;4.38;99278.80;;;;111094;1247;41243;-67
2022/03/22 06:44:04;;;;;;;29.90;15.20;;;;;4.50;99271.40;;;;111140;1246;41263;-67
2022/03/22 06:46:33;;;;;;;30.60;13.90;;;;;4.70;99269.60;;;;111099;1247;41156;-65
2022/03/22 06:49:03;;;;;;;31.00;13.80;;;;;4.90;99268.00;;;;111096;1246;42791;-67
2022/03/22 06:51:32;;;;;;;28.10;13.30;;;;;5.14;99269.00;;;;111253;1247;41166;-66
2022/03/22 06:54:03;;;;;;;27.90;13.30;;;;;5.30;99256.20;;;;111055;1247;41150;-66
2022/03/22 06:56:31;;;;;;;31.60;12.40;;;;;5.42;99264.00;;;;110999;1247;41165;-66
2022/03/22 06:59:01;;;;;;;28.10;12.00;;;;;5.70;99257.00;;;;111075;1247;41624;-65
2022/03/22 07:01:31;;;;;;;28.50;12.40;;;;;5.86;99261.20;;;;111059;1248;41255;-67
2022/03/22 07:04:01;;;;;;;27.20;12.50;;;;;6.04;99248.80;;;;111128;1246;41143;-66
2022/03/22 07:06:31;;;;;;;24.70;11.80;;;;;6.20;99250.80;;;;111065;1247;41718;-66
2022/03/22 07:09:02;;;;;;;29.40;13.30;;;;;6.50;99251.40;;;;111080;1248;41155;-65
2022/03/22 07:11:49;;;;;;;31.70;16.20;;;;;6.74;99243.00;;;;110978;1248;41269;-66
2022/03/22 07:14:21;;;;;;;23.40;11.60;;;;;7.10;99242.80;;;;111044;1247;42756;-65
2022/03/22 07:16:51;;;;;;;23.20;11.80;;;;;7.32;99238.00;;;;110888;1249;41178;-66
2022/03/22 07:19:22;;;;;;;31.10;15.50;;;;;7.70;99238.80;;;;111061;1247;41130;-66
2022/03/22 07:21:51;;;;;;;35.00;16.40;;;;;8.04;99235.60;;;;111147;1247;41649;-65
2022/03/22 07:24:20;;;;;;;44.10;20.60;;;;;8.10;99234.00;;;;111096;1249;41156;-66
2022/03/22 07:26:50;;;;;;;47.20;20.50;;;;;8.30;99236.00;;;;111144;1247;41172;-66
2022/03/22 07:29:19;;;;;;;38.80;18.90;;;;;8.30;99232.40;;;;111115;1246;41143;-66
2022/03/22 07:31:50;;;;;;;41.50;19.50;;;;;8.40;99232.60;;;;110681;1246;626559;-66
2022/03/22 07:34:20;;;;;;;;;;;;;8.60;99231.00;;;;111027;1247;41257;-64
2022/03/22 07:36:52;;;;;;;40.80;20.10;;;;;8.80;99230.00;;;;111095;1247;41177;-66
2022/03/22 07:39:23;;;;;;;35.60;18.30;;;;;8.88;99224.80;;;;111102;1247;41245;-66
2022/03/22 07:41:53;;;;;;;36.30;18.10;;;;;9.02;99231.40;;;;111024;1248;41257;-66
2022/03/22 07:44:23;;;;;;;43.00;21.50;;;;;9.30;99222.80;;;;110900;1248;42136;-66
2022/03/22 07:46:53;;;;;;;38.70;19.70;;;;;9.54;99211.80;;;;110989;1248;41256;-66
2022/03/22 07:54:58;;;;;;;35.10;16.60;;;;;9.92;99218.00;;;;111042;1247;41183;-67
2022/03/22 07:57:27;;;;;;;37.20;17.90;;;;;9.98;99208.60;;;;111042;1247;41830;-66
2022/03/22 07:59:57;;;;;;;40.50;17.60;;;;;10.10;99211.80;;;;111152;1247;41169;-67
2022/03/22 08:02:26;;;;;;;28.50;15.00;;;;;10.20;99212.00;;;;111047;1247;41333;-67
2022/03/22 08:04:56;;;;;;;36.70;15.30;;;;;10.40;99206.00;;;;111176;1246;41155;-67
2022/03/22 08:07:25;;;;;;;31.00;14.60;;;;;10.78;99204.80;;;;110805;1247;41901;-66
2022/03/22 08:09:54;;;;;;;26.80;14.30;;;;;10.96;99202.20;;;;111092;1246;41772;-65
2022/03/22 08:12:23;;;;;;;35.00;15.70;;;;;11.30;99191.60;;;;111069;1247;41385;-67
2022/03/22 08:14:53;;;;;;;34.60;15.10;;;;;11.50;99189.00;;;;111126;1247;41250;-66
2022/03/22 08:17:23;;;;;;;36.10;14.10;;;;;11.70;99188.80;;;;111135;1247;42130;-67
2022/03/22 08:19:53;;;;;;;27.80;13.50;;;;;12.00;99188.80;;;;111022;1247;41563;-68
2022/03/22 08:22:24;;;;;;;34.80;18.10;;;;;12.52;99183.40;;;;110861;1249;41362;-67
2022/03/22 08:24:57;;;;;;;28.20;14.10;;;;;12.84;99179.40;;;;111171;1247;41366;-67
2022/03/22 08:27:26;;;;;;;36.20;15.50;;;;;12.90;99174.60;;;;111139;1247;41611;-67
2022/03/22 08:29:56;;;;;;;29.20;13.10;;;;;13.02;99180.00;;;;110980;1248;41145;-68
2022/03/22 08:32:25;;;;;;;24.00;12.30;;;;;13.32;99175.60;;;;111000;1249;41479;-67
2022/03/22 08:34:55;;;;;;;25.60;12.20;;;;;13.74;99173.60;;;;111059;1247;41970;-68
2022/03/22 08:37:24;;;;;;;38.10;13.90;;;;;14.34;99171.80;;;;110771;1248;41610;-68
2022/03/22 08:39:53;;;;;;;28.60;11.80;;;;;14.84;99170.60;;;;111095;1247;41333;-68
2022/03/22 08:42:24;;;;;;;22.30;9.80;;;;;15.88;99161.20;;;;111056;1247;41674;-66
2022/03/22 08:44:53;;;;;;;19.50;8.90;;;;;17.60;99143.00;;;;111014;1247;41140;-67
2022/03/22 08:47:24;;;;;;;17.10;8.30;;;;;19.70;99133.80;;;;111084;1247;43226;-65
2022/03/22 08:49:53;;;;;;;;;;;;;21.68;99133.60;;;;110856;1250;41469;-68
2022/03/22 08:52:22;;;;;;;16.50;8.00;;;;;23.56;99127.00;;;;111075;1247;42465;-68
2022/03/22 08:54:52;;;;;;;15.80;8.00;;;;;25.20;99118.00;;;;110974;1247;41249;-68
2022/03/22 08:57:22;;;;;;;13.40;6.20;;;;;26.32;99114.00;;;;111090;1247;41146;-68
2022/03/22 08:59:51;;;;;;;19.30;7.90;;;;;27.50;99116.60;;;;111121;1247;41195;-69
2022/03/22 09:02:20;;;;;;;15.10;6.80;;;;;28.20;99110.00;;;;110962;1247;41173;-68
2022/03/22 09:07:37;;;;;;;14.60;6.70;;;;;29.42;99105.80;;;;111055;1248;41137;-71
2022/03/22 09:10:07;;;;;;;14.60;6.10;;;;;30.42;99097.60;;;;111227;1248;41249;-68
2022/03/22 09:12:35;;;;;;;12.70;6.50;;;;;30.74;99095.40;;;;111061;1248;42237;-68
2022/03/22 09:15:05;;;;;;;16.50;8.00;;;;;30.72;99097.40;;;;111034;1247;41946;-69
2022/03/22 09:17:34;;;;;;;13.60;6.50;;;;;30.46;99091.00;;;;111215;1248;41156;-68
2022/03/22 09:20:04;;;;;;;20.60;7.50;;;;;30.90;99091.40;;;;111178;1248;41840;-69
2022/03/22 09:22:34;;;;;;;12.70;6.30;;;;;31.56;99082.00;;;;111213;1249;41144;-69
2022/03/22 09:25:04;;;;;;;15.10;8.00;;;;;31.02;99082.60;;;;111095;1249;41946;-69
2022/03/22 09:27:33;;;;;;;14.50;7.60;;;;;31.08;99079.80;;;;111221;1249;41596;-70
2022/03/22 09:30:03;;;;;;;25.90;12.00;;;;;30.08;99083.60;;;;111002;1249;41932;-67
2022/03/22 09:32:35;;;;;;;23.00;12.40;;;;;29.92;99077.20;;;;111166;1247;41407;-69
2022/03/22 09:35:10;;;;;;;17.10;9.00;;;;;28.60;99074.00;;;;110731;1250;41933;-67
2022/03/22 09:37:42;;;;;;;26.80;11.60;;;;;27.84;99073.20;;;;111058;1248;41613;-69
2022/03/22 09:40:13;;;;;;;18.30;9.50;;;;;28.28;99073.80;;;;111199;1248;42653;-68
2022/03/22 09:42:43;;;;;;;30.90;15.00;;;;;27.24;99071.60;;;;111007;1249;41151;-69
2022/03/22 09:45:17;;;;;;;22.70;10.40;;;;;27.32;99074.60;;;;111195;1248;41146;-68
2022/03/22 09:47:46;;;;;;;24.60;12.00;;;;;26.98;99063.80;;;;111241;1247;41307;-67
2022/03/22 09:50:17;;;;;;;20.70;10.00;;;;;25.94;99063.20;;;;111026;1247;42295;-69
2022/03/22 09:52:46;;;;;;;24.00;11.10;;;;;25.78;99065.00;;;;111183;1248;42435;-68
2022/03/22 09:55:17;;;;;;;23.80;11.10;;;;;25.84;99060.60;;;;111192;1247;41454;-69
2022/03/22 09:57:45;;;;;;;20.40;10.10;;;;;25.98;99055.60;;;;111131;1249;41292;-69
2022/03/22 10:00:15;;;;;;;19.10;9.30;;;;;25.64;99053.80;;;;111162;1249;41143;-69
2022/03/22 10:02:44;;;;;;;16.90;8.40;;;;;26.08;99047.40;;;;111042;1249;41323;-68
2022/03/22 10:05:24;;;;;;;16.80;7.20;;;;;27.62;99041.60;;;;111054;1247;41135;-67
2022/03/22 10:08:04;;;;;;;16.40;6.80;;;;;29.22;99042.40;;;;110785;1249;41254;-68
2022/03/22 10:10:53;;;;;;;10.80;5.70;;;;;31.12;99028.80;;;;110957;1250;41719;-69
2022/03/22 10:13:22;;;;;;;13.40;6.60;;;;;32.94;99021.80;;;;110946;1250;41398;-69
2022/03/22 10:15:59;;;;;;;16.00;7.30;;;;;33.88;99019.00;;;;110936;1250;41157;-70
2022/03/22 10:18:28;;;;;;;15.10;6.80;;;;;33.42;99013.60;;;;110826;1250;41150;-71
2022/03/22 10:21:00;;;;;;;14.90;8.20;;;;;32.78;99010.60;;;;110997;1247;41172;-69
2022/03/22 10:23:33;;;;;;;16.40;8.30;;;;;31.44;99005.00;;;;110852;1250;41908;-68
2022/03/22 10:26:08;;;;;;;18.40;8.60;;;;;31.58;98999.60;;;;110984;1250;42680;-69
2022/03/22 10:28:47;;;;;;;16.60;8.50;;;;;30.66;98998.00;;;;111025;1250;41143;-69
2022/03/22 10:31:16;;;;;;;19.20;8.70;;;;;29.62;98999.80;;;;111038;1247;41727;-68
2022/03/22 10:33:53;;;;;;;15.30;7.80;;;;;29.12;98997.00;;;;110971;1250;41263;-67
2022/03/22 10:36:22;;;;;;;18.40;7.40;;;;;28.46;98993.40;;;;110886;1250;41126;-68
2022/03/22 10:38:55;;;;;;;16.50;8.80;;;;;28.42;98983.00;;;;111077;1249;41151;-68
2022/03/22 10:41:28;;;;;;;15.40;7.90;;;;;28.54;98979.20;;;;111043;1248;41594;-68
2022/03/22 10:44:09;;;;;;;14.70;7.20;;;;;28.92;98973.40;;;;110918;1247;41343;-69
2022/03/22 10:46:38;;;;;;;16.70;8.40;;;;;28.80;98968.00;;;;110890;1249;42685;-68
2022/03/22 10:49:13;;;;;;;15.40;8.20;;;;;29.70;98962.60;;;;110925;1249;41683;-68
2022/03/22 10:51:44;;;;;;;17.00;8.30;;;;;29.84;98964.00;;;;110982;1250;41168;-68
2022/03/22 10:54:19;;;;;;;20.40;7.20;;;;;30.10;98959.40;;;;111201;1247;41147;-68
2022/03/22 10:56:52;;;;;;;19.10;7.60;;;;;29.80;98954.80;;;;111256;1247;41787;-68
2022/03/22 10:59:23;;;;;;;12.70;6.50;;;;;29.14;98949.80;;;;111161;1247;41144;-69
2022/03/22 11:01:56;;;;;;;16.10;6.50;;;;;29.10;98954.60;;;;111064;1248;41146;-71
2022/03/22 11:04:25;;;;;;;17.30;6.70;;;;;29.76;98945.20;;;;110819;1249;41159;-68
2022/03/22 11:07:02;;;;;;;20.10;6.70;;;;;30.44;98936.80;;;;111222;1247;41415;-67
2022/03/22 11:09:32;;;;;;;18.30;6.50;;;;;30.90;98937.80;;;;111069;1250;41147;-68
2022/03/22 11:12:01;;;;;;;15.10;6.20;;;;;30.54;98932.80;;;;111057;1247;41418;-70
2022/03/22 11:14:30;;;;;;;13.20;6.90;;;;;31.30;98924.60;;;;110927;1249;41180;-68
2022/03/22 11:17:00;;;;;;;12.40;5.80;;;;;32.00;98926.00;;;;111214;1248;41154;-69
2022/03/22 11:19:29;;;;;;;12.00;5.70;;;;;31.26;98927.60;;;;111167;1249;41607;-70
2022/03/22 11:22:05;;;;;;;11.10;4.80;;;;;31.68;98920.80;;;;111188;1248;41254;-69
2022/03/22 11:24:37;;;;;;;14.40;6.70;;;;;33.60;98911.00;;;;111169;1249;41538;-69
2022/03/22 11:27:07;;;;;;;14.20;6.00;;;;;34.00;98900.00;;;;111238;1247;41132;-70
2022/03/22 11:29:40;;;;;;;12.80;5.60;;;;;32.14;98897.00;;;;111262;1247;41195;-70
2022/03/22 11:34:58;;;;;;;13.80;5.00;;;;;31.94;98888.40;;;;111065;1247;41261;-69
2022/03/22 11:37:31;;;;;;;10.70;4.70;;;;;33.14;98880.80;;;;111271;1247;41229;-70
2022/03/22 11:42:53;;;;;;;10.90;5.00;;;;;34.90;98865.60;;;;111237;1247;41142;-69
2022/03/22 11:45:22;;;;;;;10.10;4.40;;;;;34.70;98861.80;;;;111215;1248;41831;-70
2022/03/22 11:47:54;;;;;;;9.00;4.10;;;;;35.32;98856.40;;;;111273;1248;41133;-70
2022/03/22 11:50:25;;;;;;;9.30;4.20;;;;;35.88;98848.80;;;;111270;1247;41237;-70
2022/03/22 11:53:00;;;;;;;9.70;4.00;;;;;36.66;98850.40;;;;111161;1247;41379;-69
2022/03/22 11:55:30;;;;;;;9.70;4.30;;;;;37.56;98830.20;;;;110997;1250;41719;-68
2022/03/22 11:58:05;;;;;;;10.60;4.10;;;;;38.00;98846.20;;;;111033;1250;41186;-69
2022/03/22 12:00:46;;;;;;;8.50;3.80;;;;;38.00;98838.60;;;;111280;1248;41253;-69
2022/03/22 12:03:18;;;;;;;9.50;3.80;;;;;38.00;98830.80;;;;111051;1249;41561;-69
2022/03/22 12:05:47;;;;;;;8.80;3.10;;;;;38.36;98826.00;;;;111190;1248;41303;-69
2022/03/22 12:08:19;;;;;;;8.20;3.30;;;;;38.90;98818.60;;;;111236;1247;41609;-69
2022/03/22 12:10:53;;;;;;;9.60;3.40;;;;;39.10;98819.60;;;;111150;1249;41514;-69
2022/03/22 12:13:23;;;;;;;8.20;3.50;;;;;39.26;98822.80;;;;111188;1249;41609;-69
2022/03/22 12:16:00;;;;;;;7.90;2.80;;;;;38.70;98818.80;;;;111135;1248;41246;-70
2022/03/22 12:18:30;;;;;;;7.70;3.10;;;;;38.62;98809.80;;;;111160;1246;41254;-70
2022/03/22 12:21:00;;;;;;;8.40;3.10;;;;;38.12;98810.20;;;;111211;1248;41249;-70
2022/03/22 12:23:30;;;;;;;7.30;2.60;;;;;37.70;98808.40;;;;111196;1249;41219;-69
2022/03/22 12:26:01;;;;;;;7.10;2.70;;;;;37.48;98802.80;;;;111148;1247;42157;-70
2022/03/22 12:28:30;;;;;;;9.10;3.20;;;;;36.46;98797.00;;;;111175;1248;41845;-68
2022/03/22 12:30:59;;;;;;;8.10;3.10;;;;;35.46;98803.40;;;;111200;1248;41145;-69
2022/03/22 12:33:36;;;;;;;6.90;2.80;;;;;34.98;98802.80;;;;111103;1248;41793;-69
2022/03/22 12:36:06;;;;;;;10.50;3.60;;;;;34.54;98782.80;;;;111008;1249;41514;-69
2022/03/22 12:38:35;;;;;;;9.60;3.40;;;;;33.48;98785.80;;;;111185;1249;41143;-70
2022/03/22 12:41:04;;;;;;;7.60;3.20;;;;;32.86;98787.00;;;;111267;1247;41145;-71
2022/03/22 12:43:32;;;;;;;9.20;3.40;;;;;32.14;98789.20;;;;111203;1248;41522;-69
2022/03/22 12:46:02;;;;;;;7.70;3.00;;;;;31.86;98779.20;;;;111137;1247;41136;-69
2022/03/22 12:48:33;;;;;;;8.70;3.30;;;;;31.80;98777.40;;;;111133;1248;41012;-70